Portada
METAR-TAF:

METAR-TAF

Aeroports :

Linz, Àustria

latitud: 48-14N, longitud: 014-11E, altitud: 298 m

Observació

L'informe es va fer fa 42 minuts, a les 18:50 UTC
Vent 5 kt del Est
Temperatura 23°C
Humitat 53%
Pressió 1015 hPa
Visibilitat 10 km o més
sense núvols per sota de 1500 mi sense presència de cumulonimbus.

METAR: LOWL 231850Z AUTO 08005KT CAVOK 23/13 Q1015 NOSIG

Hora: 21:32 (19:32 UTC)

Pronòstic

L'informe es va fer fa 2 hores i 17 minuts, a les 17:15 UTC
Pronòstic vàlid del 23 a les 18 UTC al 24 a les 18 UTC
Vent 5 kt del Est
Visibilitat 10 km o més
sense núvols per sota de 1500 mi sense presència de cumulonimbus.

TAF: LOWL 231715Z 2318/2418 09005KT CAVOK TX30/2414Z TN14/2404Z

Observacions i pronòstics meteorològics de més de 4000 aeroports (METAR i TAF).

Les estacions disponibles són els punts grocs i vermells al mapa.

Posi el ratolí al punt desitjat per veure el nom de l'estació.

Feu clic per veure les observacions i els pronòstics meteorològics.

Per canviar el mapa: feu clic els botons verds amb una creu de color negre per apropar; al botó verd amb un guió per allunyar la imatge; o en les fletxes verdes per a mapes adjacents.


METAR-TAF: